Erevan, Arménie

03:09 AMT le 03 juillet 2015 (GMT +0400)
Zvartnots | | Change Station
CLOSE
Current Station
Aéroport
Location: Zvartnots,
Altitude: 2838 ft
Stations météo à proximité

Alt. 2838 ft 40.15 °N, 44.40 °E | Updated 9 minutes ago

Clear
Ciel dégagé
79 ° F
Paraît 79 ° F
N
9
Vent Variable Vent de Est

Aujourd'hui
Haut(e) -- | Bas -- ° F
--% Risque de précip.
Hier
Haut(e) -- | Bas -- ° F
Precip. -- pouce
5:37 AM 8:35 PM
Pleine lune, 99% visible
Pression 29.86 pouce
Visibilité 6.2 Miles terrestres
Nuages Ciel dégagé
Point de rosée 57 ° F
Humidité 47%
Précipitations 0.00 pouce
Profondeur de la couche neigeuse Non disponible.
UV 0 sur 12
Pollen Non disponible.
Qualité de l'air Non disponible.
Flu Activity Non disponible.
METAR UDYZ 022300Z 08004MPS 9999 SKC 26/14 Q1011 R09/000070 NOSIG

More Conditions Fewer Conditions

Pression 29.86 pouce
Visibilité 6.2 Miles terrestres
Nuages Ciel dégagé
Point de rosée 57 ° F
Humidité 47%
Précipitations 0.00 pouce
Profondeur de la couche neigeuse Non disponible.
UV 0 sur 12
Pollen Non disponible.
Qualité de l'air Non disponible.
Flu Activity Non disponible.
METAR UDYZ 022300Z 08004MPS 9999 SKC 26/14 Q1011 R09/000070 NOSIG

More Conditions Fewer Conditions

10-Day Weather Forecast

×

Almanac

Astronomie

Jul. 03, 2015 Lever Coucher
Temps réel
Crépuscule civil
Crépuscule nautique
Crépuscule astronomique
Lune
Durée de lumière visible
Longueur du jour
Tomorrow will be .
, % of the Moon is Illuminated

Extrêmes aujourd'hui

Country Highs Country Lows

Community

WunderPhotos

Upload Photos

1,834,564 Photos téléchargées !

WunderBlogs® & News

Nearby

Qualité de l'air

  Qualité de l'air Indice de la qualité de l'air Polluant
Not available.

Épaisseur de neige

Station Depth Altitude

Activité sismique

Ville Distance Mag. Time & Date
Minimum magnitude displayed is 2.5.

Températures des eaux côtières

Lieu Température

Stations

Stations météo à proximité

Emplacement de la station Température Refroidissement éolien Point de rosée Humidité Vent Precip. Alt. Mise à jour Type